Strona główna
METAR-TAF:

METAR-TAF

Lotnisko :

Katowice, Polska

Port lotniczy Katowice-Pyrzowice

Szerokość geograficzna: 50-28-27N, Długość geograficzna: 019-04-48E, wysokość: 284 m

Aktualna obserwacja pogody

Raport powstał 38 minut temu, godzina 09:30 UTC
Wiatr 7 kt od południowy zachód
Temperatura -1°C
Wilgotność 86%
Ciśnienie 1029 hPa
Widzialność: 7000 m
Zachmurzenie całkowite na wysokości 1000 ft

METAR: EPKT 040930Z 22007KT 7000 OVC010 M01/M03 Q1029

czas: 11:08 (10:08 UTC)

Prognoza

Raport powstał 1 godzina i 6 minut temu, godzina 09:02 UTC
Prognoza ważna od 04 godzina 09 UTC do 05 godzina 06 UTC
Wiatr 8 kt od zachód
Widzialność 10 km lub więcej
Zachmurzenie całkowite na wysokości 1000 ft
Stopniowe zmiany
od 04 godzina 10 UTC do 04 godzina 12 UTC
Przerywane chmury na wysokości 2000 ft
Przejściowo
od 04 godzina 18 UTC do 05 godzina 01 UTC
Widzialność: 3000 m
zamglenie

TAF: EPKT 040902Z 0409/0506 27008KT 9999 OVC010 BECMG 0410/0412 BKN020 TEMPO 0418/0501 3000 BR

Obserwacja i prognoza pogody dla ponad 4000 lotnisk (raport METAR i TAF).

Dostępne stacje oznaczono żółtymi i czerwonymi punktami na mapie.

Najedź kursorem aby zobaczyć nazwę stacji.

Kliknij aby zobaczyć obserwacje i prognozy pogody.

Aby zmienić mapę: kliknij na zielony przycisk z czarnym krzyżykiem, aby powiększyć; na zielony przycisk z myślnikiem, aby pomniejszyć; na zielone strzałki, aby przejść do map sąsiednich.


METAR-TAF: